createdAt,value
2022-11-05T00:01:07.351Z,5.28
2022-11-05T00:06:23.352Z,5.13
2022-11-05T00:11:40.672Z,4.35
2022-11-05T00:16:44.095Z,4.13
2022-11-05T00:21:59.724Z,3.80
2022-11-05T00:26:56.925Z,4.32
2022-11-05T00:31:54.258Z,4.32
2022-11-05T00:36:51.507Z,4.53
2022-11-05T00:42:08.660Z,3.47
2022-11-05T00:47:24.645Z,4.78
2022-11-05T00:52:40.782Z,4.20
2022-11-05T00:57:38.220Z,4.70
2022-11-05T01:02:35.616Z,4.72
2022-11-05T01:07:33.361Z,4.63
2022-11-05T01:12:32.115Z,4.38
2022-11-05T01:17:29.689Z,3.92
2022-11-05T01:22:26.988Z,4.47
2022-11-05T01:27:24.353Z,4.18
2022-11-05T01:32:21.663Z,4.47
2022-11-05T01:37:18.929Z,3.53
2022-11-05T01:42:23.067Z,4.10
2022-11-05T01:47:30.313Z,3.30
2022-11-05T01:52:30.665Z,3.50
2022-11-05T01:57:29.871Z,4.50
2022-11-05T02:02:27.858Z,4.20
2022-11-05T02:07:35.172Z,3.13
2022-11-05T02:12:34.850Z,3.92
2022-11-05T02:23:23.316Z,3.47
2022-11-05T02:28:50.762Z,5.38
2022-11-05T02:34:03.557Z,4.97
2022-11-05T02:39:30.396Z,5.82
2022-11-05T02:44:45.036Z,6.18
2022-11-05T02:50:11.160Z,5.65
2022-11-05T02:55:25.705Z,6.63
2022-11-05T03:00:48.580Z,5.45
2022-11-05T03:06:08.645Z,6.20
2022-11-05T03:11:20.135Z,5.95
2022-11-05T03:16:39.771Z,7.47
2022-11-05T03:21:41.542Z,7.40
2022-11-05T03:26:57.307Z,7.68
2022-11-05T03:32:02.395Z,7.13
2022-11-05T03:37:08.062Z,6.68
2022-11-05T03:42:10.958Z,7.28
2022-11-05T03:47:25.180Z,8.25
2022-11-05T03:52:28.776Z,7.20
2022-11-05T03:57:34.683Z,6.40
2022-11-05T04:02:33.231Z,7.50
2022-11-05T04:07:50.837Z,7.57
2022-11-05T04:13:07.745Z,8.45
2022-11-05T04:18:06.179Z,8.10
2022-11-05T04:23:25.456Z,8.68
2022-11-05T04:28:52.517Z,8.70
2022-11-05T04:33:50.148Z,9.25
2022-11-05T04:38:47.822Z,8.60
2022-11-05T04:43:45.766Z,7.88
2022-11-05T04:48:44.105Z,6.60
2022-11-05T04:53:42.438Z,6.53
2022-11-05T04:58:42.228Z,6.05
2022-11-05T05:03:41.467Z,7.00
2022-11-05T05:08:39.843Z,8.25
2022-11-05T05:13:39.517Z,8.15
2022-11-05T05:18:46.021Z,7.88
2022-11-05T05:23:48.551Z,6.15
2022-11-05T05:28:47.037Z,7.03
2022-11-05T05:33:45.234Z,6.53
2022-11-05T05:38:43.357Z,5.88
2022-11-05T05:43:43.096Z,5.43
2022-11-05T05:48:42.362Z,6.50
2022-11-05T05:53:40.669Z,6.55
2022-11-05T05:58:39.810Z,5.80
2022-11-05T06:03:37.948Z,5.68
2022-11-05T06:08:39.449Z,5.47
2022-11-05T06:13:37.718Z,5.93
2022-11-05T06:18:36.620Z,4.90
2022-11-05T06:28:34.995Z,5.80
2022-11-05T06:33:34.983Z,5.70
2022-11-05T06:38:34.847Z,4.70
2022-11-05T06:43:33.656Z,5.50
2022-11-05T06:48:41.115Z,5.65
2022-11-05T06:53:40.071Z,6.53
2022-11-05T06:58:43.281Z,6.30
2022-11-05T07:03:44.848Z,5.53
2022-11-05T07:08:43.502Z,4.55
2022-11-05T07:13:41.725Z,4.80
2022-11-05T07:18:46.925Z,4.82
2022-11-05T07:23:54.011Z,5.05
2022-11-05T07:29:01.117Z,5.25
2022-11-05T07:33:59.398Z,4.30
2022-11-05T07:39:06.632Z,3.50
2022-11-05T07:44:05.022Z,2.95
2022-11-05T07:49:03.076Z,3.30
2022-11-05T07:54:02.788Z,3.92
2022-11-05T07:59:00.248Z,3.50
2022-11-05T08:03:58.006Z,4.00
2022-11-05T08:08:55.707Z,4.95
2022-11-05T08:13:52.996Z,3.92
2022-11-05T08:18:50.280Z,4.05
2022-11-05T08:23:47.871Z,4.13
2022-11-05T08:28:45.357Z,4.40
2022-11-05T08:33:42.806Z,3.75
2022-11-05T08:38:40.541Z,4.30
2022-11-05T08:43:38.180Z,4.50
2022-11-05T08:48:35.756Z,3.42
2022-11-05T08:53:33.216Z,3.53
2022-11-05T08:58:31.072Z,3.33
2022-11-05T09:03:28.330Z,3.15
2022-11-05T09:08:25.757Z,3.00
2022-11-05T09:13:23.526Z,3.30
2022-11-05T09:18:21.250Z,2.92
2022-11-05T09:23:18.897Z,3.70
2022-11-05T09:28:21.504Z,3.03
2022-11-05T09:33:21.845Z,2.60
2022-11-05T09:38:19.369Z,2.40
2022-11-05T09:43:26.086Z,2.67
2022-11-05T09:48:32.089Z,2.70
2022-11-05T09:53:29.334Z,2.67
2022-11-05T09:58:36.327Z,2.60
2022-11-05T10:03:38.512Z,2.95
2022-11-05T10:08:43.081Z,2.60
2022-11-05T10:13:51.363Z,2.55
2022-11-05T10:18:54.467Z,2.42
2022-11-05T10:23:51.919Z,2.47
2022-11-05T10:28:49.699Z,2.58
2022-11-05T10:34:04.010Z,3.00
2022-11-05T10:39:13.568Z,2.65
2022-11-05T10:44:24.403Z,2.15
2022-11-05T10:49:44.858Z,2.55
2022-11-05T10:54:42.107Z,2.80
2022-11-05T10:59:39.280Z,2.67
2022-11-05T11:04:38.208Z,2.70
2022-11-05T11:09:37.673Z,2.33
2022-11-05T11:14:35.457Z,1.83
2022-11-05T11:19:36.637Z,2.00
2022-11-05T11:24:42.670Z,1.70
2022-11-05T11:29:48.054Z,1.40
2022-11-05T11:34:51.907Z,1.83
2022-11-05T11:40:04.265Z,1.20
2022-11-05T11:45:15.838Z,1.70
2022-11-05T11:50:35.450Z,1.20
2022-11-05T11:55:32.677Z,1.10
2022-11-05T12:00:31.835Z,1.95
2022-11-05T12:05:41.663Z,1.45
2022-11-05T12:11:21.539Z,0.88
2022-11-05T12:16:41.953Z,3.00
2022-11-05T12:22:00.543Z,1.30
2022-11-05T12:27:03.977Z,1.35
2022-11-05T12:32:19.985Z,1.42
2022-11-05T12:37:30.988Z,1.15
2022-11-05T12:42:54.228Z,1.20
2022-11-05T12:48:35.836Z,1.60
2022-11-05T12:54:03.571Z,1.05
2022-11-05T12:59:21.431Z,1.20
2022-11-05T13:04:40.734Z,1.38
2022-11-05T13:10:06.372Z,1.10
2022-11-05T13:15:35.328Z,1.10
2022-11-05T13:20:37.837Z,1.10
2022-11-05T13:25:40.878Z,0.73
2022-11-05T13:30:44.747Z,0.70
2022-11-05T13:35:46.618Z,1.73
2022-11-05T13:40:56.967Z,1.00
2022-11-05T13:46:12.000Z,0.73
2022-11-05T13:51:18.373Z,0.90
2022-11-05T13:56:27.524Z,1.15
2022-11-05T14:01:42.864Z,0.77
2022-11-05T14:06:40.694Z,0.75
2022-11-05T14:11:42.707Z,0.80
2022-11-05T14:17:13.130Z,0.73
2022-11-05T14:22:32.963Z,0.70
2022-11-05T14:27:33.711Z,0.65
2022-11-05T14:32:45.881Z,1.17
2022-11-05T14:37:56.323Z,1.00
2022-11-05T14:42:59.250Z,1.10
2022-11-05T14:48:02.512Z,1.30
2022-11-05T14:53:07.325Z,2.17
2022-11-05T14:58:25.811Z,2.20
2022-11-05T15:03:46.796Z,2.78
2022-11-05T15:08:50.360Z,1.65
2022-11-05T15:13:54.881Z,1.05
2022-11-05T15:18:54.681Z,1.77
2022-11-05T15:23:57.245Z,1.80
2022-11-05T15:28:56.285Z,1.60
2022-11-05T15:34:20.218Z,2.07
2022-11-05T15:39:45.516Z,2.58
2022-11-05T15:44:48.376Z,4.53
2022-11-05T15:49:49.009Z,4.65
2022-11-05T15:54:47.023Z,3.88
2022-11-05T15:59:47.343Z,4.22
2022-11-05T16:04:48.698Z,4.13
2022-11-05T16:10:12.523Z,3.85
2022-11-05T16:15:10.340Z,3.33
2022-11-05T16:20:35.326Z,3.53
2022-11-05T16:25:42.849Z,4.63
2022-11-05T16:30:40.163Z,5.25
2022-11-05T16:35:46.770Z,6.25
2022-11-05T16:40:44.220Z,9.52
2022-11-05T16:45:41.753Z,9.40
2022-11-05T16:50:39.578Z,7.93
2022-11-05T16:55:39.552Z,8.35
2022-11-05T17:00:36.956Z,6.88
2022-11-05T17:05:34.408Z,7.97
2022-11-05T17:10:31.880Z,7.75
2022-11-05T17:15:31.926Z,9.35
2022-11-05T17:20:40.677Z,11.25
2022-11-05T17:25:40.291Z,9.43
2022-11-05T17:30:41.228Z,9.82
2022-11-05T17:35:41.050Z,13.82
2022-11-05T17:40:38.711Z,8.48
2022-11-05T17:45:42.319Z,7.90
2022-11-05T17:50:45.238Z,7.80
2022-11-05T17:55:44.114Z,7.18
2022-11-05T18:00:42.804Z,7.90
2022-11-05T18:05:41.224Z,7.47
2022-11-05T18:10:40.852Z,7.55
2022-11-05T18:15:41.387Z,8.57
2022-11-05T18:20:39.296Z,9.55
2022-11-05T18:25:36.828Z,10.38
2022-11-05T18:30:34.940Z,9.38
2022-11-05T18:35:34.413Z,8.50
2022-11-05T18:40:32.203Z,8.23
2022-11-05T18:45:30.214Z,7.80
2022-11-05T18:50:28.841Z,6.53
2022-11-05T18:55:26.633Z,6.97
2022-11-05T19:00:24.449Z,8.35
2022-11-05T19:05:28.934Z,7.72
2022-11-05T19:10:28.905Z,9.70
2022-11-05T19:15:26.623Z,10.20
2022-11-05T19:20:24.192Z,7.78
2022-11-05T19:25:22.093Z,8.35
2022-11-05T19:30:19.736Z,10.05
2022-11-05T19:35:17.364Z,9.00
2022-11-05T19:40:15.051Z,9.25
2022-11-05T19:50:30.976Z,7.63
2022-11-05T19:55:28.817Z,7.55
2022-11-05T20:00:26.642Z,7.85
2022-11-05T20:05:24.180Z,8.60
2022-11-05T20:10:21.814Z,8.50
2022-11-05T20:15:19.969Z,7.95
2022-11-05T20:20:18.007Z,7.72
2022-11-05T20:25:15.428Z,7.47
2022-11-05T20:30:12.844Z,8.50
2022-11-05T20:35:10.902Z,7.95
2022-11-05T20:40:08.727Z,6.75
2022-11-05T20:45:06.974Z,6.45
2022-11-05T20:50:05.275Z,7.28
2022-11-05T20:55:03.429Z,6.13
2022-11-05T21:00:01.018Z,8.63
2022-11-05T21:04:58.812Z,7.40
2022-11-05T21:09:56.417Z,8.02
2022-11-05T21:14:53.753Z,5.95
2022-11-05T21:19:51.312Z,8.18
2022-11-05T21:24:48.517Z,5.72
2022-11-05T21:29:46.098Z,5.68
2022-11-05T21:34:43.443Z,6.22
2022-11-05T21:39:40.765Z,8.20
2022-11-05T21:44:38.355Z,7.22
2022-11-05T21:49:36.246Z,11.18
2022-11-05T21:54:52.152Z,7.00
2022-11-05T21:59:49.771Z,6.82
2022-11-05T22:04:49.585Z,6.70
2022-11-05T22:09:47.000Z,7.32
2022-11-05T22:14:44.343Z,6.47
2022-11-05T22:19:41.808Z,5.78
2022-11-05T22:24:40.136Z,5.32
2022-11-05T22:29:37.591Z,5.53
2022-11-05T22:34:34.887Z,6.75
2022-11-05T22:39:32.556Z,6.95
2022-11-05T22:44:29.935Z,7.35
2022-11-05T22:49:27.635Z,7.80
2022-11-05T22:54:24.850Z,7.15
2022-11-05T22:59:22.095Z,5.97
2022-11-05T23:04:19.281Z,4.90
2022-11-05T23:09:41.660Z,5.68
2022-11-05T23:14:38.926Z,5.55
2022-11-05T23:19:54.385Z,5.22
2022-11-05T23:24:51.725Z,4.45
2022-11-05T23:29:49.380Z,4.80
2022-11-05T23:34:46.641Z,4.82
2022-11-05T23:39:44.116Z,5.22
2022-11-05T23:44:59.644Z,4.38
2022-11-05T23:49:56.869Z,4.20
2022-11-05T23:54:54.481Z,4.35
2022-11-05T23:59:51.840Z,5.40
